Altoona, Wisconsin
Current Conditions -  °F | °C
As of 9:56 PM on Tuesday 27 Jan 2015 (Local Time) from KEAU Reporting Station
Overcast Overcast  
Wind Chill: -7°   Ceiling: 1900
Heat Index: -3°   Visibility: 10mi
Dew Point: -7°   Wind: 8mph
Humidity: 75%   Direction: 150°SSE
Pressure: 30.18"   Gusts: NA
Location:  44.81°N, 91.43°W
Report Text: KEAU 280356Z AUTO 15007KT 10SM OVC019 M03/M07 A3018 RMK AO2 SLP232 T10281067
Loading
Personal Weather Stations






























Interactive Weather Map New forecast layout! Learn more

10-Day Weather Forecast

Advertisements
Track Severe Weather on mobile